Flight Track Log - Related Links

Times and Time Zones

All times are in EDT time to prevent confusion due to time zone crossing. See the AFL150 flight status page for this flight to view local times or setup timezone preferences in your user account.

Time Position Orientation Groundspeed Altitude Reporting Facility
EDT Latitude Longitude Course Direction KTS MPH feet Rate Location/Type
Thu 06:29:00 AM 56.2188 36.7068 307° West  Level Estimated
Thu 06:30:00 AM 56.2996 36.5472 312° West  Level FlightAware Approximate
Thu 06:31:00 AM 56.3803 36.3870 312° West  Level FlightAware Approximate
Thu 06:32:00 AM 56.4607 36.2261 312° West  Level FlightAware Approximate
Thu 06:33:00 AM 56.5409 36.0645 312° West  Level FlightAware Approximate
Thu 06:34:00 AM 56.6209 35.9022 312° West  Level FlightAware Approximate
Thu 06:35:00 AM 56.7007 35.7392 312° West  Level FlightAware Approximate
Thu 06:36:00 AM 56.7803 35.5756 312° West  Level FlightAware Approximate
Thu 06:37:00 AM 56.8597 35.4112 311° West  Level FlightAware Approximate
Thu 06:38:00 AM 56.9388 35.2461 311° West  Level FlightAware Approximate
Thu 06:39:00 AM 57.0177 35.0804 311° West  Level FlightAware Approximate
Thu 06:40:00 AM 57.0965 34.9139 311° West  Level FlightAware Approximate
Thu 06:41:00 AM 57.1749 34.7467 311° West  Level FlightAware Approximate
Thu 06:42:00 AM 57.2532 34.5789 311° West  Level FlightAware Approximate
Thu 06:43:00 AM 57.3312 34.4103 311° West  Level FlightAware Approximate
Thu 06:44:00 AM 57.4079 34.2303 307° West  Level FlightAware Approximate
Thu 06:45:00 AM 57.4792 34.0510 307° West  Level FlightAware Approximate
Thu 06:46:00 AM 57.5503 33.8710 306° West  Level FlightAware Approximate
Thu 06:47:00 AM 57.6211 33.6904 306° West  Level FlightAware Approximate
Thu 06:48:00 AM 57.6916 33.5090 306° West  Level FlightAware Approximate
Thu 06:49:00 AM 57.7619 33.3269 306° West  Level FlightAware Approximate
Thu 06:50:00 AM 57.8319 33.1442 306° West  Level FlightAware Approximate
Thu 06:51:00 AM 57.9016 32.9607 306° West  Level FlightAware Approximate
Thu 06:52:00 AM 57.9711 32.7765 305° West  Level FlightAware Approximate
Thu 06:53:00 AM 58.0403 32.5916 305° West  Level FlightAware Approximate
Thu 06:54:00 AM 58.1093 32.4059 305° West  Level FlightAware Approximate
Thu 06:55:00 AM 58.1779 32.2196 305° West  Level FlightAware Approximate
Thu 06:56:00 AM 58.2463 32.0325 305° West  Level FlightAware Approximate
Thu 06:56:10 AM 56.4946 31.8258 278° West 417 480 32,000  Level FlightAware ADS-B
Thu 07:00:17 AM 56.6052 30.9725 302° West 418 481 32,000  Level FlightAware ADS-B
Thu 07:01:17 AM 56.6768 30.8062 311° West 420 483 32,000  Level FlightAware ADS-B
Thu 07:02:17 AM 56.7470 30.6401 303° West 416 479 32,000  Level FlightAware ADS-B
Thu 07:03:15 AM 56.8088 30.4762 304° West 417 480 32,000  Level FlightAware ADS-B
Thu 07:04:17 AM 56.8760 30.2949 304° West 417 480 32,000  Level FlightAware ADS-B
Thu 07:05:15 AM 56.9312 30.1446 304° West 416 479 32,000 94 Level FlightAware ADS-B
Thu 07:06:25 AM 57.0143 29.9162 304° West 419 482 32,200 541 Climbing FlightAware ADS-B
Thu 07:07:28 AM 57.0813 29.7307 303° West 422 486 33,200 1,016 Climbing FlightAware ADS-B
Thu 07:08:29 AM 57.1467 29.5482 303° West 417 480 34,300 787 Climbing FlightAware ADS-B
Thu 07:09:30 AM 57.2101 29.3701 303° West 423 487 34,800 694 Climbing FlightAware ADS-B
Thu 07:10:30 AM 57.2751 29.1863 303° West 420 483 35,700 600 Climbing FlightAware ADS-B
Thu 07:11:30 AM 57.3384 29.0057 303° West 425 489 36,000 151 Climbing FlightAware ADS-B
Thu 07:12:29 AM 57.4013 28.8249 303° West 422 486 36,000  Level FlightAware ADS-B
Thu 07:13:29 AM 57.4633 28.6455 303° West 419 482 36,000  Level FlightAware ADS-B
Thu 07:14:29 AM 57.5194 28.4822 302° West 418 481 36,000  Level FlightAware ADS-B
Thu 07:15:29 AM 57.5864 28.2852 302° West 420 483 36,000  Level FlightAware ADS-B
Thu 07:16:28 AM 57.6488 28.1012 302° West 422 486 36,000  Level FlightAware ADS-B
Thu 07:17:26 AM 57.6897 27.9798 302° West 423 487 36,000  Level FlightAware ADS-B
Thu 07:18:30 AM 57.7749 27.7239 302° West 422 486 36,000  Level FlightAware ADS-B
Thu 07:19:29 AM 57.8349 27.5392 297° West 423 487 36,000  Level FlightAware ADS-B
Thu 07:20:29 AM 57.8770 27.3310 291° West 424 488 36,000  Level FlightAware ADS-B
Thu 07:21:29 AM 57.9182 27.1269 291° West 426 490 36,000  Level FlightAware ADS-B
Thu 07:22:30 AM 57.9603 26.9168 291° West 426 490 36,000  Level FlightAware ADS-B
Thu 07:23:28 AM 58.0004 26.7145 290° West 425 489 36,000  Level FlightAware ADS-B
Thu 07:24:30 AM 58.0419 26.5026 290° West 425 489 36,000  Level FlightAware ADS-B
Thu 07:25:30 AM 58.0818 26.2971 290° West 425 489 36,000  Level FlightAware ADS-B
Thu 07:26:29 AM 58.1220 26.0879 290° West 425 489 36,000  Level FlightAware ADS-B
Thu 07:27:29 AM 58.1620 25.8771 290° West 426 490 36,000  Level FlightAware ADS-B
Thu 07:28:29 AM 58.2009 25.6708 290° West 423 487 36,000  Level FlightAware ADS-B
Thu 07:29:30 AM 58.2402 25.4587 289° West 421 484 36,000  Level FlightAware ADS-B
Thu 07:30:36 AM 58.2823 25.2285 289° West 422 486 36,000  Level FlightAware ADS-B
Thu 07:31:33 AM 58.3194 25.0244 289° West 422 486 36,000  Level FlightAware ADS-B
Thu 07:32:36 AM 58.3256 24.9900 289° West 423 487 36,000  Level FlightAware ADS-B
Thu 07:46:50 AM 58.8081 21.7117 284° West 429 494 36,000  Level FlightAware ADS-B
Thu 07:47:29 AM 58.8263 21.5702 284° West 431 496 36,000  Level FlightAware ADS-B
Thu 07:48:09 AM 58.8440 21.4320 284° West 431 496 36,000  Level FlightAware ADS-B
Thu 07:48:50 AM 58.8616 21.2928 284° West 432 497 36,000  Level FlightAware ADS-B
Thu 07:49:49 AM 58.8981 21.0463 289° West 430 495 36,000  Level FlightAware ADS-B
Thu 07:50:25 AM 58.9189 20.9292 288° West 431 496 36,000  Level FlightAware ADS-B
Thu 07:51:12 AM 58.9472 20.7686 289° West 428 493 36,000  Level FlightAware ADS-B
Thu 07:51:50 AM 58.9741 20.6151 289° West 426 490 36,000  Level FlightAware ADS-B
Thu 07:52:52 AM 59.0129 20.3894 288° West 424 488 36,000  Level FlightAware ADS-B
Thu 07:53:28 AM 59.0363 20.2517 288° West 425 489 36,000  Level FlightAware ADS-B
Thu 07:54:12 AM 59.0622 20.0982 288° West 425 489 36,000  Level FlightAware ADS-B
Thu 07:54:51 AM 59.0866 19.9520 288° West 427 491 36,000  Level FlightAware ADS-B
Thu 07:55:31 AM 59.1094 19.8145 288° West 427 491 36,000  Level FlightAware ADS-B
Thu 07:56:12 AM 59.1332 19.6695 288° West 430 495 36,000  Level FlightAware ADS-B
Thu 07:56:52 AM 59.1588 19.5127 288° West 432 497 36,000  Level FlightAware ADS-B
Thu 07:57:33 AM 59.1833 19.3612 288° West 430 495 36,000  Level FlightAware ADS-B
Thu 07:58:12 AM 59.2065 19.2163 287° West 427 491 36,000  Level FlightAware ADS-B
Thu 07:58:53 AM 59.2310 19.0629 287° West 428 493 36,000  Level FlightAware ADS-B
Thu 07:59:32 AM 59.2519 18.9301 287° West 429 494 36,000  Level FlightAware ADS-B
Thu 08:00:13 AM 59.2765 18.7722 287° West 431 496 36,000  Level FlightAware ADS-B
Thu 08:00:52 AM 59.2995 18.6237 287° West 433 498 36,000  Level FlightAware ADS-B
Thu 08:01:33 AM 59.3231 18.4697 287° West 432 497 36,000  Level FlightAware ADS-B
Thu 08:02:13 AM 59.3440 18.3329 287° West 431 496 36,000  Level FlightAware ADS-B
Thu 08:02:52 AM 59.3675 18.1763 286° West 429 494 36,000  Level FlightAware ADS-B
Thu 08:03:33 AM 59.3894 18.0298 287° West 429 494 36,000  Level FlightAware ADS-B
Thu 08:04:14 AM 59.4123 17.8765 286° West 426 490 36,000  Level FlightAware ADS-B
Thu 08:04:54 AM 59.4341 17.7275 286° West 426 490 36,000  Level FlightAware ADS-B
Thu 08:05:32 AM 59.4551 17.5830 286° West 425 489 36,000  Level FlightAware ADS-B
Thu 08:06:14 AM 59.4777 17.4261 286° West 427 491 36,000  Level FlightAware ADS-B
Thu 08:06:54 AM 59.4980 17.2841 286° West 429 494 36,000  Level FlightAware ADS-B
Thu 08:07:34 AM 59.5201 17.1282 286° West 431 496 36,000  Level FlightAware ADS-B
Thu 08:08:14 AM 59.5398 16.9877 285° West 430 495 36,000  Level FlightAware ADS-B
Thu 08:08:54 AM 59.5623 16.8255 285° West 429 494 36,000  Level FlightAware ADS-B
Thu 08:09:33 AM 59.5824 16.6801 285° West 430 495 36,000  Level FlightAware ADS-B
Thu 08:10:14 AM 59.5989 16.5264 281° West 431 496 36,000  Level FlightAware ADS-B
Thu 08:10:53 AM 59.6130 16.3867 281° West 432 497 36,000  Level FlightAware ADS-B
Thu 08:11:36 AM 59.6313 16.2027 281° West 434 499 36,000  Level FlightAware ADS-B
Thu 08:12:19 AM 59.6494 16.0441 283° West 434 499 36,000  Level FlightAware ADS-B
Thu 08:12:59 AM 59.6677 15.8870 283° West 434 499 36,000  Level FlightAware ADS-B
Thu 08:13:39 AM 59.6846 15.7381 283° West 433 498 36,000  Level FlightAware ADS-B
Thu 08:16:00 AM 59.7743 15.2079 289° West  Level Estimated
Thu 08:17:00 AM 59.8118 14.9814 288° West  Level Estimated
Thu 08:18:00 AM 59.8489 14.7545 288° West  Level Estimated
Thu 08:19:00 AM 59.8856 14.5270 288° West  Level Estimated
Thu 08:20:00 AM 59.9219 14.2990 288° West  Level Estimated
Thu 08:21:00 AM 59.9579 14.0705 288° West  Level Estimated
Thu 08:22:00 AM 59.9934 13.8415 287° West  Level Estimated
Thu 08:23:00 AM 60.0286 13.6121 287° West  Level Estimated
Thu 08:24:00 AM 60.0633 13.3821 287° West  Level Estimated
Thu 08:25:00 AM 60.0976 13.1517 287° West  Level Estimated
Thu 08:26:00 AM 60.1316 12.9208 287° West  Level Estimated
Thu 08:27:00 AM 60.1651 12.6894 286° West  Level Estimated
Thu 08:28:00 AM 60.1983 12.4575 286° West  Level Estimated
Thu 08:29:00 AM 60.2310 12.2252 286° West  Level Estimated
Thu 08:30:00 AM 60.2633 11.9924 286° West  Level Estimated
Thu 08:31:00 AM 60.2952 11.7592 286° West  Level Estimated
Thu 08:32:00 AM 60.3267 11.5255 285° West  Level Estimated
Thu 08:33:00 AM 60.3578 11.2914 285° West  Level Estimated
Thu 08:34:00 AM 60.3885 11.0568 285° West  Level Estimated
Thu 08:35:00 AM 60.4188 10.8217 285° West  Level Estimated
Thu 08:36:00 AM 60.4486 10.5863 285° West  Level Estimated
Thu 08:37:00 AM 60.4781 10.3504 284° West  Level Estimated
Thu 08:38:00 AM 60.5071 10.1141 284° West  Level Estimated
Thu 08:39:00 AM 60.5357 9.8773 284° West  Level Estimated
Thu 08:40:00 AM 60.5639 9.6402 284° West  Level Estimated
Thu 08:41:00 AM 60.5916 9.4026 283° West  Level Estimated
Thu 08:42:00 AM 60.6190 9.1647 283° West  Level Estimated
Thu 08:43:00 AM 60.6459 8.9263 283° West  Level Estimated
Thu 08:44:00 AM 60.6724 8.6875 283° West  Level Estimated
Thu 08:45:00 AM 60.6984 8.4484 283° West  Level Estimated
Thu 08:46:00 AM 60.7241 8.2088 282° West  Level Estimated
Thu 08:47:00 AM 60.7493 7.9689 282° West  Level Estimated
Thu 08:48:00 AM 60.7741 7.7286 282° West  Level Estimated
Thu 08:49:00 AM 60.7984 7.4880 282° West  Level Estimated
Thu 08:50:00 AM 60.8223 7.2470 282° West  Level Estimated
Thu 08:51:00 AM 60.8458 7.0056 281° West  Level Estimated
Thu 08:52:00 AM 60.8689 6.7638 281° West  Level Estimated
Thu 08:53:00 AM 60.8915 6.5217 281° West  Level Estimated
Thu 08:54:00 AM 60.9137 6.2793 281° West  Level Estimated
Thu 08:55:00 AM 60.9355 6.0366 281° West  Level Estimated
Thu 08:56:00 AM 60.9568 5.7935 280° West  Level Estimated
Thu 08:57:00 AM 60.9776 5.5501 280° West  Level Estimated
Thu 08:58:00 AM 60.9981 5.3064 280° West  Level Estimated
Thu 08:59:00 AM 61.0181 5.0623 280° West  Level Estimated
Thu 09:00:00 AM 61.0376 4.8180 279° West  Level Estimated
Thu 09:01:00 AM 61.0567 4.5734 279° West  Level Estimated
Thu 09:02:00 AM 61.0754 4.3284 279° West  Level Estimated
Thu 09:03:00 AM 61.0936 4.0832 279° West  Level Estimated
Thu 09:04:00 AM 61.1114 3.8377 279° West  Level Estimated
Thu 09:05:00 AM 61.1287 3.5920 278° West  Level Estimated
Thu 09:06:00 AM 61.1456 3.3459 278° West  Level Estimated
Thu 09:07:00 AM 61.1621 3.0997 278° West  Level Estimated
Thu 09:08:00 AM 61.1781 2.8531 278° West  Level Estimated
Thu 09:09:00 AM 61.1936 2.6063 278° West  Level Estimated
Thu 09:10:00 AM 61.2087 2.3593 277° West  Level Estimated
Thu 09:11:00 AM 61.2234 2.1120 277° West  Level Estimated
Thu 09:12:00 AM 61.2375 1.8645 277° West  Level Estimated
Thu 09:13:00 AM 61.2513 1.6168 277° West  Level Estimated
Thu 09:14:00 AM 61.2646 1.3689 276° West  Level Estimated
Thu 09:15:00 AM 61.2774 1.1208 276° West  Level Estimated
Thu 09:16:00 AM 61.2898 0.8724 276° West  Level Estimated
Thu 09:17:00 AM 61.3018 0.6239 276° West  Level Estimated
Thu 09:18:00 AM 61.3132 0.3752 276° West  Level Estimated
Thu 09:19:00 AM 61.3242 0.1263 275° West  Level Estimated
Thu 09:20:00 AM 61.3348 -0.1227 275° West  Level Estimated
Thu 09:21:00 AM 61.3449 -0.3720 275° West  Level Estimated
Thu 09:22:00 AM 61.3546 -0.6213 275° West  Level Estimated
Thu 09:23:00 AM 61.3638 -0.8709 275° West  Level Estimated
Thu 09:24:00 AM 61.3725 -1.1205 274° West  Level Estimated
Thu 09:25:00 AM 61.3808 -1.3703 274° West  Level Estimated
Thu 09:26:00 AM 61.3886 -1.6203 274° West  Level Estimated
Thu 09:27:00 AM 61.3960 -1.8703 274° West  Level Estimated
Thu 09:28:00 AM 61.4029 -2.1205 273° West  Level Estimated
Thu 09:29:00 AM 61.4094 -2.3708 273° West  Level Estimated
Thu 09:30:00 AM 61.4154 -2.6212 273° West  Level Estimated
Thu 09:31:00 AM 61.4209 -2.8716 273° West  Level Estimated
Thu 09:32:00 AM 61.4259 -3.1222 273° West  Level Estimated
Thu 09:33:00 AM 61.4306 -3.3728 272° West  Level Estimated
Thu 09:34:00 AM 61.4347 -3.6235 272° West  Level Estimated
Thu 09:35:00 AM 61.4384 -3.8743 272° West  Level Estimated
Thu 09:36:00 AM 61.4416 -4.1251 272° West  Level Estimated
Thu 09:37:00 AM 61.4444 -4.3760 271° West  Level Estimated
Thu 09:38:00 AM 61.4467 -4.6269 271° West  Level Estimated
Thu 09:39:00 AM 61.4485 -4.8779 271° West  Level Estimated
Thu 09:40:00 AM 61.4499 -5.1288 271° West  Level Estimated
Thu 09:41:00 AM 61.4508 -5.3798 271° West  Level Estimated
Thu 09:42:00 AM 61.4513 -5.6308 270° West  Level Estimated
Thu 09:43:00 AM 61.4513 -5.8818 270° West  Level Estimated
Thu 09:44:00 AM 61.4508 -6.1328 270° West  Level Estimated
Thu 09:45:00 AM 61.4499 -6.3838 270° West  Level Estimated
Thu 09:46:00 AM 61.4485 -6.6348 269° West  Level Estimated
Thu 09:47:00 AM 61.4467 -6.8857 269° West  Level Estimated
Thu 09:48:00 AM 61.4443 -7.1367 269° West  Level Estimated
Thu 09:49:00 AM 61.4416 -7.3875 269° West  Level Estimated
Thu 09:50:00 AM 61.4383 -7.6384 269° West  Level Estimated
Thu 09:51:00 AM 61.4346 -7.8891 268° West  Level Estimated
Thu 09:52:00 AM 61.4305 -8.1398 268° West  Level Estimated
Thu 09:53:00 AM 61.4259 -8.3905 268° West  Level Estimated
Thu 09:54:00 AM 61.4208 -8.6410 268° West  Level Estimated
Thu 09:55:00 AM 61.4152 -8.8915 267° West  Level Estimated
Thu 09:56:00 AM 61.4093 -9.1419 267° West  Level Estimated
Thu 09:57:00 AM 61.4028 -9.3921 267° West  Level Estimated
Thu 09:58:00 AM 61.3959 -9.6423 267° West  Level Estimated
Thu 09:59:00 AM 61.3885 -9.8924 267° West  Level Estimated
Thu 10:00:00 AM 61.3807 -10.1423 266° West  Level Estimated
Thu 10:01:00 AM 61.3724 -10.3921 266° West  Level Estimated
Thu 10:02:00 AM 61.3636 -10.6418 266° West  Level Estimated
Thu 10:03:00 AM 61.3544 -10.8913 266° West  Level Estimated
Thu 10:04:00 AM 61.3448 -11.1407 265° West  Level Estimated
Thu 10:05:00 AM 61.3346 -11.3899 265° West  Level Estimated
Thu 10:06:00 AM 61.3241 -11.6390 265° West  Level Estimated
Thu 10:07:00 AM 61.3130 -11.8878 265° West  Level Estimated
Thu 10:08:00 AM 61.3016 -12.1365 265° West  Level Estimated
Thu 10:09:00 AM 61.2896 -12.3851 264° West  Level Estimated
Thu 10:10:00 AM 61.2772 -12.6334 264° West  Level Estimated
Thu 10:11:00 AM 61.2644 -12.8815 264° West  Level Estimated
Thu 10:12:00 AM 61.2511 -13.1294 264° West  Level Estimated
Thu 10:13:00 AM 61.2373 -13.3771 264° West  Level Estimated
Thu 10:14:00 AM 61.2231 -13.6246 263° West  Level Estimated
Thu 10:15:00 AM 61.2085 -13.8719 263° West  Level Estimated
Thu 10:16:00 AM 61.1934 -14.1189 263° West  Level Estimated
Thu 10:17:00 AM 61.1778 -14.3657 263° West  Level Estimated
Thu 10:18:00 AM 61.1618 -14.6122 262° West  Level Estimated
Thu 10:19:00 AM 61.1454 -14.8585 262° West  Level Estimated
Thu 10:20:00 AM 61.1285 -15.1046 262° West  Level Estimated
Thu 10:21:00 AM 61.1111 -15.3503 262° West  Level Estimated
Thu 10:22:00 AM 61.0933 -15.5958 262° West  Level Estimated
Thu 10:23:00 AM 61.0751 -15.8410 261° West  Level Estimated
Thu 10:24:00 AM 61.0564 -16.0859 261° West  Level Estimated
Thu 10:25:00 AM 61.0373 -16.3306 261° West  Level Estimated
Thu 10:26:00 AM 61.0177 -16.5749 261° West  Level Estimated
Thu 10:27:00 AM 60.9977 -16.8189 261° West  Level Estimated
Thu 10:28:00 AM 60.9773 -17.0626 260° West  Level Estimated
Thu 10:29:00 AM 60.9564 -17.3060 260° West  Level Estimated
Thu 10:30:00 AM 60.9351 -17.5491 260° West  Level Estimated
Thu 10:31:00 AM 60.9133 -17.7919 260° West  Level Estimated
Thu 10:32:00 AM 60.8911 -18.0343 259° West  Level Estimated
Thu 10:33:00 AM 60.8685 -18.2763 259° West  Level Estimated
Thu 10:34:00 AM 60.8455 -18.5181 259° West  Level Estimated
Thu 10:35:00 AM 60.8219 -18.7595 259° West  Level Estimated
Thu 10:36:00 AM 60.7980 -19.0005 259° West  Level Estimated
Thu 10:37:00 AM 60.7737 -19.2411 258° West  Level Estimated
Thu 10:38:00 AM 60.7489 -19.4814 258° West  Level Estimated
Thu 10:39:00 AM 60.7237 -19.7213 258° West  Level Estimated
Thu 10:40:00 AM 60.6980 -19.9608 258° West  Level Estimated
Thu 10:41:00 AM 60.6719 -20.2000 258° West  Level Estimated
Thu 10:42:00 AM 60.6454 -20.4387 257° West  Level Estimated
Thu 10:43:00 AM 60.6185 -20.6771 257° West  Level Estimated
Thu 10:44:00 AM 60.5912 -20.9151 257° West  Level Estimated
Thu 10:45:00 AM 60.5634 -21.1526 257° West  Level Estimated
Thu 10:46:00 AM 60.5352 -21.3898 257° West  Level Estimated
Thu 10:47:00 AM 60.5066 -21.6265 256° West  Level Estimated
Thu 10:48:00 AM 60.4776 -21.8628 256° West  Level Estimated
Thu 10:49:00 AM 60.4481 -22.0987 256° West  Level Estimated
Thu 10:50:00 AM 60.4183 -22.3342 256° West  Level Estimated
Thu 10:51:00 AM 60.3880 -22.5692 255° West  Level Estimated
Thu 10:52:00 AM 60.3573 -22.8037 255° West  Level Estimated
Thu 10:53:00 AM 60.3262 -23.0379 255° West  Level Estimated
Thu 10:54:00 AM 60.2947 -23.2716 255° West  Level Estimated
Thu 10:55:00 AM 60.2628 -23.5048 255° West  Level Estimated
Thu 10:56:00 AM 60.2304 -23.7376 254° West  Level Estimated
Thu 10:57:00 AM 60.1977 -23.9699 254° West  Level Estimated
Thu 10:58:00 AM 60.1646 -24.2017 254° West  Level Estimated
Thu 10:59:00 AM 60.1310 -24.4331 254° West  Level Estimated
Thu 11:00:00 AM 60.0971 -24.6640 254° West  Level Estimated
Thu 11:01:00 AM 60.0627 -24.8944 253° West  Level Estimated
Thu 11:02:00 AM 60.0280 -25.1244 253° West  Level Estimated
Thu 11:03:00 AM 59.9928 -25.3538 253° West  Level Estimated
Thu 11:04:00 AM 59.9573 -25.5828 253° West  Level Estimated
Thu 11:05:00 AM 59.9213 -25.8113 253° West  Level Estimated
Thu 11:06:00 AM 59.8850 -26.0392 252° West  Level Estimated
Thu 11:07:00 AM 59.8483 -26.2667 252° West  Level Estimated
Thu 11:08:00 AM 59.8112 -26.4937 252° West  Level Estimated
Thu 11:09:00 AM 59.7737 -26.7202 252° West  Level Estimated
Thu 11:10:00 AM 59.7357 -26.9461 252° West  Level Estimated
Thu 11:11:00 AM 59.6975 -27.1716 251° West  Level Estimated
Thu 11:12:00 AM 59.6588 -27.3965 251° West  Level Estimated
Thu 11:13:00 AM 59.6197 -27.6209 251° West  Level Estimated
Thu 11:14:00 AM 59.5803 -27.8447 251° West  Level Estimated
Thu 11:15:00 AM 59.5405 -28.0681 251° West  Level Estimated
Thu 11:16:00 AM 59.5003 -28.2909 251° West  Level Estimated
Thu 11:17:00 AM 59.4597 -28.5132 250° West  Level Estimated
Thu 11:18:00 AM 59.4188 -28.7350 250° West  Level Estimated
Thu 11:19:00 AM 59.3774 -28.9562 250° West  Level Estimated
Thu 11:20:00 AM 59.3357 -29.1768 250° West  Level Estimated
Thu 11:21:00 AM 59.2937 -29.3970 250° West  Level Estimated
Thu 11:22:00 AM 59.2512 -29.6166 249° West  Level Estimated
Thu 11:23:00 AM 59.2084 -29.8356 249° West  Level Estimated
Thu 11:24:00 AM 59.1652 -30.0541 249° West  Level Estimated
Thu 11:25:00 AM 59.1217 -30.2720 249° West  Level Estimated
Thu 11:26:00 AM 59.0778 -30.4894 249° West  Level Estimated
Thu 11:27:00 AM 59.0335 -30.7062 248° West  Level Estimated
Thu 11:28:00 AM 58.9889 -30.9225 248° West  Level Estimated
Thu 11:29:00 AM 58.9439 -31.1382 248° West  Level Estimated
Thu 11:30:00 AM 58.8985 -31.3533 248° West  Level Estimated
Thu 11:31:00 AM 58.8528 -31.5679 248° West  Level Estimated
Thu 11:32:00 AM 58.8068 -31.7819 248° West  Level Estimated
Thu 11:33:00 AM 58.7604 -31.9953 247° West  Level Estimated
Thu 11:34:00 AM 58.7136 -32.2081 247° West  Level Estimated
Thu 11:35:00 AM 58.6665 -32.4204 247° West  Level Estimated
Thu 11:36:00 AM 58.6190 -32.6321 247° West  Level Estimated
Thu 11:37:00 AM 58.5712 -32.8433 247° West  Level Estimated
Thu 11:38:00 AM 58.5230 -33.0538 246° West  Level Estimated
Thu 11:39:00 AM 58.4745 -33.2638 246° West  Level Estimated
Thu 11:40:00 AM 58.4257 -33.4732 246° West  Level Estimated
Thu 11:41:00 AM 58.3765 -33.6820 246° West  Level Estimated
Thu 11:42:00 AM 58.3270 -33.8902 246° West  Level Estimated
Thu 11:43:00 AM 58.2771 -34.0979 246° West  Level Estimated
Thu 11:44:00 AM 58.2270 -34.3049 245° Southwest  Level Estimated
Thu 11:45:00 AM 58.1764 -34.5114 245° Southwest  Level Estimated
Thu 11:46:00 AM 58.1256 -34.7173 245° Southwest  Level Estimated
Thu 11:47:00 AM 58.0744 -34.9226 245° Southwest  Level Estimated
Thu 11:48:00 AM 58.0229 -35.1273 245° Southwest  Level Estimated
Thu 11:49:00 AM 57.9710 -35.3314 244° Southwest  Level Estimated
Thu 11:50:00 AM 57.9188 -35.5349 244° Southwest  Level Estimated
Thu 11:51:00 AM 57.8663 -35.7379 244° Southwest  Level Estimated
Thu 11:52:00 AM 57.8135 -35.9402 244° Southwest  Level Estimated
Thu 11:53:00 AM 57.7604 -36.1419 244° Southwest  Level Estimated
Thu 11:54:00 AM 57.7069 -36.3431 244° Southwest  Level Estimated
Thu 11:55:00 AM 57.6531 -36.5437 243° Southwest  Level Estimated
Thu 11:56:00 AM 57.5990 -36.7436 243° Southwest  Level Estimated
Thu 11:57:00 AM 57.5446 -36.9430 243° Southwest  Level Estimated
Thu 11:58:00 AM 57.4899 -37.1417 243° Southwest  Level Estimated
Thu 11:59:00 AM 57.4349 -37.3399 243° Southwest  Level Estimated
Thu 12:00:00 PM 57.3795 -37.5375 243° Southwest  Level Estimated
Thu 12:01:00 PM 57.3239 -37.7345 242° Southwest  Level Estimated
Thu 12:02:00 PM 57.2679 -37.9308 242° Southwest  Level Estimated
Thu 12:03:00 PM 57.2116 -38.1266 242° Southwest  Level Estimated
Thu 12:04:00 PM 57.1551 -38.3218 242° Southwest  Level Estimated
Thu 12:05:00 PM 57.0982 -38.5164 242° Southwest  Level Estimated
Thu 12:06:00 PM 57.0410 -38.7104 242° Southwest  Level Estimated
Thu 12:07:00 PM 56.9836 -38.9038 241° Southwest  Level Estimated
Thu 12:08:00 PM 56.9258 -39.0966 241° Southwest  Level Estimated
Thu 12:09:00 PM 56.8677 -39.2888 241° Southwest  Level Estimated
Thu 12:10:00 PM 56.8094 -39.4804 241° Southwest  Level Estimated
Thu 12:11:00 PM 56.7507 -39.6714 241° Southwest  Level Estimated
Thu 12:12:00 PM 56.6918 -39.8618 241° Southwest  Level Estimated
Thu 12:13:00 PM 56.6325 -40.0516 240° Southwest  Level Estimated
Thu 12:14:00 PM 56.5730 -40.2408 240° Southwest  Level Estimated
Thu 12:15:00 PM 56.5132 -40.4294 240° Southwest  Level Estimated
Thu 12:16:00 PM 56.4531 -40.6174 240° Southwest  Level Estimated
Thu 12:17:00 PM 56.3927 -40.8049 240° Southwest  Level Estimated
Thu 12:18:00 PM 56.3321 -40.9917 240° Southwest  Level Estimated
Thu 12:19:00 PM 56.2712 -41.1779 240° Southwest  Level Estimated
Thu 12:20:00 PM 56.2099 -41.3635 239° Southwest  Level Estimated
Thu 12:21:00 PM 56.1484 -41.5486 239° Southwest  Level Estimated
Thu 12:22:00 PM 56.0867 -41.7331 239° Southwest  Level Estimated
Thu 12:23:00 PM 56.0246 -41.9169 239° Southwest  Level Estimated
Thu 12:24:00 PM 55.9623 -42.1002 239° Southwest  Level Estimated
Thu 12:25:00 PM 55.8997 -42.2829 239° Southwest  Level Estimated
Thu 12:26:00 PM 55.8369 -42.4650 238° Southwest  Level Estimated
Thu 12:27:00 PM 55.7738 -42.6465 238° Southwest  Level Estimated
Thu 12:28:00 PM 55.7104 -42.8274 238° Southwest  Level Estimated
Thu 12:29:00 PM 55.6467 -43.0077 238° Southwest  Level Estimated
Thu 12:30:00 PM 55.5828 -43.1875 238° Southwest  Level Estimated
Thu 12:31:00 PM 55.5186 -43.3666 238° Southwest  Level Estimated
Thu 12:32:00 PM 55.4542 -43.5452 238° Southwest  Level Estimated
Thu 12:33:00 PM 55.3895 -43.7232 237° Southwest  Level Estimated
Thu 12:34:00 PM 55.3245 -43.9006 237° Southwest  Level Estimated
Thu 12:35:00 PM 55.2593 -44.0774 237° Southwest  Level Estimated
Thu 12:36:00 PM 55.1939 -44.2537 237° Southwest  Level Estimated
Thu 12:37:00 PM 55.1281 -44.4293 237° Southwest  Level Estimated
Thu 12:38:00 PM 55.0622 -44.6044 237° Southwest  Level Estimated
Thu 12:39:00 PM 54.9959 -44.7789 237° Southwest  Level Estimated
Thu 12:40:00 PM 54.9295 -44.9528 236° Southwest  Level Estimated
Thu 12:41:00 PM 54.8627 -45.1262 236° Southwest  Level Estimated
Thu 12:42:00 PM 54.7958 -45.2990 236° Southwest  Level Estimated
Thu 12:43:00 PM 54.7286 -45.4712 236° Southwest  Level Estimated
Thu 12:44:00 PM 54.6611 -45.6428 236° Southwest  Level Estimated
Thu 12:45:00 PM 54.5934 -45.8139 236° Southwest  Level Estimated
Thu 12:46:00 PM 54.5255 -45.9844 236° Southwest  Level Estimated
Thu 12:47:00 PM 54.4573 -46.1543 235° Southwest  Level Estimated
Thu 12:48:00 PM 54.3889 -46.3237 235° Southwest  Level Estimated
Thu 12:49:00 PM 54.3203 -46.4925 235° Southwest  Level Estimated
Thu 12:50:00 PM 54.2514 -46.6607 235° Southwest  Level Estimated
Thu 12:51:00 PM 54.1823 -46.8284 235° Southwest  Level Estimated
Thu 12:51:47 PM 60.0667 -55.2833 234° Southwest 360 414 36,000  Level Gander Center
Thu 12:52:00 PM 54.1129 -46.9955 235° Southwest  Level Estimated
Thu 12:52:47 PM 59.9833 -55.4667 228° Southwest 440 506 36,000  Level Gander Center
Thu 12:53:00 PM 54.0433 -47.1621 235° Southwest  Level Estimated
Thu 12:53:47 PM 59.9167 -55.6667 236° Southwest 450 518 36,000  Level Gander Center
Thu 12:54:00 PM 53.9735 -47.3281 234° Southwest  Level Estimated
Thu 12:54:47 PM 59.8500 -55.8500 234° Southwest 430 495 36,000  Level Gander Center
Thu 12:55:00 PM 53.9034 -47.4936 234° Southwest  Level Estimated
Thu 12:55:47 PM 59.7667 -56.0333 228° Southwest 430 495 36,000  Level Gander Center
Thu 12:56:00 PM 53.8332 -47.6585 234° Southwest  Level Estimated
Thu 12:56:47 PM 59.6833 -56.2000 225° Southwest 430 495 36,000  Level Gander Center
Thu 12:57:00 PM 53.7626 -47.8229 234° Southwest  Level Estimated
Thu 12:57:47 PM 59.6333 -56.4167 246° West 430 495 36,000  Level Gander Center
Thu 12:58:47 PM 59.5333 -56.5833 220° Southwest 430 495 36,000  Level Gander Center
Thu 12:59:47 PM 59.4667 -56.7667 234° Southwest 430 495 36,000  Level Gander Center
Thu 01:00:47 PM 59.3833 -56.9333 226° Southwest 440 506 36,000  Level Gander Center
Thu 01:01:47 PM 59.3000 -57.1333 231° Southwest 440 506 36,000  Level Gander Center
Thu 01:02:47 PM 59.2333 -57.3167 235° Southwest 440 506 36,000  Level Gander Center
Thu 01:03:47 PM 59.1500 -57.4833 226° Southwest 440 506 36,000  Level Gander Center
Thu 01:04:47 PM 59.0667 -57.6500 226° Southwest 440 506 36,000  Level Gander Center
Thu 01:06:51 PM 58.9167 -58.0167 232° Southwest 440 506 36,000  Level Gander Center
Thu 01:07:47 PM 58.8333 -58.2000 229° Southwest 430 495 36,000  Level Gander Center
Thu 01:08:47 PM 58.7500 -58.3667 226° Southwest 440 506 36,000  Level Gander Center
Thu 01:09:47 PM 58.6833 -58.5500 235° Southwest 440 506 36,000  Level Gander Center
Thu 01:10:47 PM 58.6000 -58.7167 226° Southwest 440 506 36,000  Level Gander Center
Thu 01:11:47 PM 58.5167 -58.8833 226° Southwest 440 506 36,000  Level Gander Center
Thu 01:12:47 PM 58.4333 -59.0500 226° Southwest 440 506 36,000  Level Gander Center
Thu 01:13:47 PM 58.3333 -59.2500 226° Southwest 440 506 36,000  Level Gander Center
Thu 01:14:47 PM 58.2500 -59.4167 227° Southwest 440 506 36,000  Level Gander Center
Thu 01:15:47 PM 58.1833 -59.5833 233° Southwest 440 506 36,000  Level Gander Center
Thu 01:16:47 PM 58.1000 -59.7333 224° Southwest 430 495 36,000  Level Gander Center
Thu 01:17:47 PM 58.0167 -59.9000 227° Southwest 430 495 36,000  Level Gander Center
Thu 01:18:47 PM 57.9167 -60.0333 215° Southwest 440 506 36,000  Level Gander Center
Thu 01:19:47 PM 57.8167 -60.1500 212° Southwest 440 506 36,000  Level Gander Center
Thu 01:20:47 PM 57.7167 -60.2833 215° Southwest 440 506 36,000  Level Gander Center
Thu 01:21:47 PM 57.6000 -60.4167 211° Southwest 440 506 36,000  Level Gander Center
Thu 01:22:47 PM 57.5000 -60.5333 212° Southwest 440 506 36,000  Level Gander Center
Thu 01:23:47 PM 57.4000 -60.6667 216° Southwest 440 506 36,000  Level Gander Center
Thu 01:24:47 PM 57.3000 -60.7833 212° Southwest 440 506 36,000  Level Gander Center
Thu 01:25:47 PM 57.2000 -60.9167 216° Southwest 430 495 36,000  Level Gander Center
Thu 01:26:47 PM 57.1000 -61.0000 204° Southwest 430 495 36,000  Level Gander Center
Thu 01:27:47 PM 57.0000 -61.1333 216° Southwest 430 495 36,000  Level Gander Center
Thu 01:28:47 PM 56.9000 -61.2500 213° Southwest 430 495 36,000  Level Gander Center
Thu 01:29:47 PM 56.7833 -61.3667 209° Southwest 430 495 36,000  Level Gander Center
Thu 01:30:47 PM 56.7000 -61.5000 221° Southwest 410 472 36,000  Level Gander Center
Thu 01:31:47 PM 56.6000 -61.6167 213° Southwest 420 483 36,000  Level Gander Center
Thu 01:32:47 PM 56.5000 -61.7000 205° Southwest 430 495 36,000  Level Gander Center
Thu 01:33:47 PM 56.3833 -61.8167 209° Southwest 430 495 36,000  Level Gander Center
Thu 01:34:47 PM 56.2833 -61.9167 209° Southwest 440 506 36,000  Level Gander Center
Thu 01:35:47 PM 56.1667 -62.0333 209° Southwest 430 495 36,000  Level Gander Center
Thu 01:36:47 PM 56.0667 -62.1167 205° Southwest 430 495 36,000  Level Gander Center
Thu 01:37:47 PM 55.9667 -62.2000 205° Southwest 430 495 36,000  Level Gander Center
Thu 01:38:47 PM 55.8500 -62.3000 206° Southwest 430 495 36,000  Level Gander Center
Thu 01:39:47 PM 55.7500 -62.4167 213° Southwest 430 495 36,000  Level Gander Center
Thu 01:40:47 PM 55.6333 -62.5000 202° Southwest 430 495 36,000  Level Gander Center
Thu 01:41:47 PM 55.5333 -62.5833 205° Southwest 430 495 36,000  Level Gander Center
Thu 01:42:47 PM 55.4333 -62.7000 214° Southwest 430 495 36,000  Level Gander Center
Thu 01:43:47 PM 55.3167 -62.7833 202° Southwest 430 495 36,000  Level Gander Center
Thu 01:44:47 PM 55.2000 -62.8667 202° Southwest 430 495 36,000  Level Gander Center
Thu 01:45:47 PM 55.0833 -62.9500 202° Southwest 420 483 36,000  Level Gander Center
Thu 01:46:47 PM 54.9833 -63.0333 206° Southwest 430 495 36,000  Level Gander Center
Thu 01:47:47 PM 54.8667 -63.1167 202° Southwest 430 495 36,000  Level Gander Center
Thu 01:48:47 PM 54.7667 -63.2000 206° Southwest 430 495 36,000  Level Gander Center
Thu 01:49:47 PM 54.6667 -63.2833 206° Southwest 420 483 36,000  Level Gander Center
Thu 01:50:47 PM 54.5500 -63.3500 198° South 430 495 36,000  Level Gander Center
Thu 01:51:47 PM 54.4500 -63.4333 206° Southwest 430 495 36,000  Level Gander Center
Thu 01:52:47 PM 54.3333 -63.5167 203° Southwest 430 495 36,000  Level Gander Center
Thu 01:53:47 PM 54.2167 -63.6000 203° Southwest 430 495 36,000  Level Gander Center
Thu 01:54:47 PM 54.1000 -63.6833 203° Southwest 430 495 36,000  Level Gander Center
Thu 01:55:47 PM 53.9833 -63.7500 199° South 430 495 36,000  Level Gander Center
Thu 01:56:47 PM 53.8833 -63.8333 206° Southwest 430 495 36,000  Level Gander Center
Thu 01:57:47 PM 53.7833 -63.9167 206° Southwest 440 506 36,000  Level Gander Center
Thu 01:58:47 PM 53.6667 -63.9833 199° South 440 506 36,000  Level Gander Center
Thu 01:59:47 PM 53.5500 -64.0667 203° Southwest 430 495 36,000  Level Gander Center
Thu 02:00:47 PM 53.4333 -64.1500 203° Southwest 440 506 36,000  Level Gander Center
Thu 02:01:47 PM 53.3333 -64.2167 202° Southwest 440 506 36,000  Level Gander Center
Thu 02:02:47 PM 53.2000 -64.3000 201° Southwest 440 506 36,000  Level Gander Center
Thu 02:03:47 PM 53.1000 -64.3667 202° Southwest 440 506 36,000  Level Gander Center
Thu 02:04:47 PM 52.9833 -64.4500 203° Southwest 440 506 36,000  Level Gander Center
Thu 02:05:47 PM 52.8667 -64.5167 199° South 440 506 36,000  Level Gander Center
Thu 02:06:47 PM 52.7667 -64.6000 207° Southwest 440 506 36,000  Level Gander Center
Thu 02:07:47 PM 52.6500 -64.6667 199° South 440 506 36,000  Level Gander Center
Thu 02:08:47 PM 52.5333 -64.7500 203° Southwest 440 506 36,000  Level Gander Center
Thu 02:09:47 PM 52.4167 -64.8167 199° South 440 506 36,000  Level Gander Center
Thu 02:10:47 PM 52.3000 -64.9000 204° Southwest 440 506 36,000  Level Gander Center
Thu 02:11:47 PM 52.1833 -64.9667 199° South 440 506 36,000  Level Gander Center
Thu 02:12:47 PM 52.0667 -65.0667 208° Southwest 450 518 36,000  Level Gander Center
Thu 02:13:47 PM 51.9667 -65.1333 202° Southwest 450 518 36,000  Level Gander Center
Thu 02:14:28 PM 51.8833 -65.1833 200° South 450 518 36,000  Level Moncton Center
Thu 02:15:28 PM 51.7667 -65.2667 204° Southwest 450 518 36,000  Level Moncton Center
Thu 02:16:28 PM 51.6500 -65.3333 200° South 450 518 36,000  Level Moncton Center
Thu 02:17:28 PM 51.5333 -65.4000 200° South 450 518 36,000  Level Moncton Center
Thu 02:18:28 PM 51.4167 -65.4667 200° South 450 518 36,000  Level Moncton Center
Thu 02:19:28 PM 51.3000 -65.5500 204° Southwest 450 518 36,000  Level Moncton Center
Thu 02:20:28 PM 51.1833 -65.6333 204° Southwest 450 518 36,000  Level Moncton Center
Thu 02:21:28 PM 51.0500 -65.7000 197° South 450 518 36,000  Level Moncton Center
Thu 02:22:28 PM 50.9333 -65.7500 195° South 460 529 36,000  Level Moncton Center
Thu 02:23:28 PM 50.8167 -65.8333 204° Southwest 460 529 36,000  Level Moncton Center
Thu 02:24:28 PM 50.7000 -65.9000 200° South 460 529 36,000  Level Moncton Center
Thu 02:25:28 PM 50.5667 -65.9833 202° Southwest 460 529 36,000  Level Moncton Center
Thu 02:26:28 PM 50.4667 -66.0500 203° Southwest 460 529 36,000  Level Moncton Center
Thu 02:27:28 PM 50.3500 -66.1333 205° Southwest 460 529 36,000  Level Moncton Center
Thu 02:28:28 PM 50.2167 -66.2000 198° South 460 529 36,000  Level Moncton Center
Thu 02:29:28 PM 50.1167 -66.2833 208° Southwest 460 529 36,000  Level Moncton Center
Thu 02:30:28 PM 49.9833 -66.3500 198° South 460 529 36,000  Level Moncton Center
Thu 02:31:28 PM 49.8667 -66.4000 195° South 460 529 36,000  Level Moncton Center
Thu 02:32:28 PM 49.7333 -66.4667 198° South 460 529 36,000  Level Moncton Center
Thu 02:33:28 PM 49.6167 -66.5500 205° Southwest 460 529 36,000  Level Moncton Center
Thu 02:34:28 PM 49.5000 -66.6167 200° South 460 529 36,000  Level Moncton Center
Thu 02:35:28 PM 49.3833 -66.6833 200° South 460 529 36,000  Level Moncton Center
Thu 02:36:28 PM 49.2667 -66.7500 200° South 460 529 36,000  Level Moncton Center
Thu 02:37:28 PM 49.1333 -66.8333 202° Southwest 460 529 36,000  Level Moncton Center
Thu 02:38:28 PM 49.0167 -66.9000 201° Southwest 460 529 36,000  Level Moncton Center
Thu 02:39:28 PM 48.9000 -66.9500 196° South 460 529 36,000  Level Moncton Center
Thu 02:40:28 PM 48.7833 -67.0167 201° Southwest 470 541 36,000  Level Moncton Center
Thu 02:41:28 PM 48.6500 -67.0833 198° South 470 541 36,000  Level Moncton Center
Thu 02:42:28 PM 48.5167 -67.1500 198° South 470 541 36,000  Level Moncton Center
Thu 02:43:28 PM 48.4000 -67.2167 201° Southwest 470 541 36,000  Level Moncton Center
Thu 02:44:28 PM 48.2833 -67.2833 201° Southwest 470 541 36,000  Level Moncton Center
Thu 02:45:28 PM 48.1667 -67.3667 205° Southwest 470 541 36,000  Level Moncton Center
Thu 02:46:28 PM 48.0333 -67.4333 198° South 470 541 36,000  Level Moncton Center
Thu 02:47:28 PM 47.9167 -67.5000 201° Southwest 470 541 36,000  Level Moncton Center
Thu 02:53:38 PM 47.1842 -67.9874 210° Southwest 467 537 36,000  Level FlightAware ADS-B
Thu 02:55:20 PM 46.9940 -68.1497 210° Southwest 467 537 36,000  Level FlightAware ADS-B
Thu 02:56:05 PM 46.9123 -68.2192 210° Southwest 464 534 36,000  Level FlightAware ADS-B
Thu 02:56:45 PM 46.8375 -68.2824 210° Southwest 464 534 36,000  Level FlightAware ADS-B
Thu 02:57:21 PM 46.7728 -68.3367 210° Southwest 466 536 36,000  Level FlightAware ADS-B
Thu 02:57:52 PM 46.7122 -68.3874 210° Southwest 467 537 36,000  Level FlightAware ADS-B
Thu 02:58:34 PM 46.6333 -68.4533 210° Southwest 466 536 36,000  Level FlightAware ADS-B
Thu 02:59:15 PM 46.5568 -68.5170 210° Southwest 467 537 36,000  Level FlightAware ADS-B
Thu 02:59:55 PM 46.4816 -68.5797 210° Southwest 471 542 36,000  Level FlightAware ADS-B
Thu 03:00:26 PM 46.4254 -68.6262 210° Southwest 473 544 36,000  Level FlightAware ADS-B
Thu 03:01:09 PM 46.3434 -68.6938 210° Southwest 473 544 36,000  Level FlightAware ADS-B
Thu 03:01:39 PM 46.2853 -68.7417 210° Southwest 472 543 36,000  Level FlightAware ADS-B
Thu 03:02:21 PM 46.2047 -68.8078 210° Southwest 471 542 36,000  Level FlightAware ADS-B
Thu 03:02:52 PM 46.1462 -68.8558 210° Southwest 472 543 36,000  Level FlightAware ADS-B
Thu 03:03:42 PM 46.0500 -68.9341 210° Southwest 473 544 36,000  Level FlightAware ADS-B
Thu 03:04:13 PM 45.9928 -68.9805 209° Southwest 473 544 36,000  Level FlightAware ADS-B
Thu 03:04:57 PM 45.9170 -69.0419 209° Southwest 472 543 36,000  Level FlightAware ADS-B
Thu 03:05:30 PM 45.8461 -69.0992 210° Southwest 471 542 36,000  Level FlightAware ADS-B
Thu 03:06:00 PM 45.7908 -69.1438 209° Southwest 471 542 36,000  Level FlightAware ADS-B
Thu 03:06:32 PM 45.7299 -69.1929 210° Southwest 470 541 36,000  Level FlightAware ADS-B
Thu 03:06:40 PM 45.7137 -69.2058 210° Southwest 470 541 36,000  Level FlightAware ADS-B
Thu 03:07:10 PM 45.6625 -69.2470 209° Southwest 471 542 36,000  Level FlightAware ADS-B
Thu 03:07:58 PM 45.5674 -69.3231 209° Southwest 472 543 36,000  Level FlightAware ADS-B
Thu 03:08:32 PM 45.5280 -69.3545 209° Southwest 465 535 36,000  Level FlightAware ADS-B
Thu 03:09:03 PM 45.4480 -69.4179 209° Southwest 464 534 36,000  Level FlightAware ADS-B
Thu 03:09:37 PM 45.3795 -69.4722 209° Southwest 462 532 36,000  Level FlightAware ADS-B
Thu 03:10:09 PM 45.3691 -69.4805 209° Southwest 461 531 36,000  Level FlightAware ADS-B
Thu 03:10:41 PM 45.2595 -69.5671 209° Southwest 465 535 36,000  Level FlightAware ADS-B
Thu 03:11:12 PM 45.2048 -69.6101 209° Southwest 467 537 36,000  Level FlightAware ADS-B
Thu 03:11:42 PM 45.1465 -69.6557 209° Southwest 466 536 36,000  Level FlightAware ADS-B
Thu 03:12:16 PM 45.0821 -69.7064 209° Southwest 464 534 36,000  Level FlightAware ADS-B
Thu 03:12:51 PM 45.0634 -69.7210 209° Southwest 464 534 36,000  Level FlightAware ADS-B
Thu 03:13:27 PM 44.9484 -69.8107 209° Southwest 468 539 36,000  Level FlightAware ADS-B
Thu 03:14:01 PM 44.8835 -69.8609 209° Southwest 466 536 36,000  Level FlightAware ADS-B
Thu 03:14:41 PM 44.8084 -69.9193 209° Southwest 468 539 36,000  Level FlightAware ADS-B
Thu 03:15:20 PM 44.7546 -69.9607 209° Southwest 465 535 36,000  Level FlightAware ADS-B
Thu 03:16:15 PM 44.6308 -70.0561 209° Southwest 466 536 36,000  Level FlightAware ADS-B
Thu 03:16:45 PM 44.5736 -70.1001 209° Southwest 469 540 36,000  Level FlightAware ADS-B
Thu 03:17:16 PM 44.5546 -70.1147 209° Southwest 469 540 36,000  Level FlightAware ADS-B
Thu 03:17:49 PM 44.4643 -70.1836 209° Southwest 467 537 36,000  Level FlightAware ADS-B
Thu 03:18:42 PM 44.3531 -70.2682 209° Southwest 463 533 36,000  Level FlightAware ADS-B (EPKK / KRK)
Thu 03:19:12 PM 44.3146 -70.2973 209° Southwest 462 532 36,000  Level FlightAware ADS-B
Thu 03:20:13 PM 44.1845 -70.3955 208° Southwest 452 520 36,000  Level FlightAware ADS-B (EPKK / KRK)
Thu 03:20:48 PM 44.1213 -70.4432 209° Southwest 446 513 36,000  Level FlightAware ADS-B (EPKK / KRK)
Thu 03:21:28 PM 44.0468 -70.4996 208° Southwest 449 517 36,000  Level FlightAware ADS-B (EPKK / KRK)
Thu 03:21:58 PM 43.9921 -70.5407 209° Southwest 442 509 36,000  Level FlightAware ADS-B (KASH)
Thu 03:22:13 PM 43.9637 -70.5620 209° Southwest 442 509 36,000  Level FlightAware ADS-B (KASH)
Thu 03:22:54 PM 43.8945 -70.6135 208° Southwest 447 514 36,000  Level FlightAware ADS-B (EPKK / KRK)
Thu 03:23:27 PM 43.8305 -70.6613 209° Southwest 442 509 36,000  Level FlightAware ADS-B (KASH)
Thu 03:23:57 PM 43.7747 -70.7029 209° Southwest 443 510 36,000  Level FlightAware ADS-B (KASH)
Thu 03:24:13 PM 43.7465 -70.7238 209° Southwest 444 511 36,000  Level FlightAware ADS-B (KASH)
Thu 03:24:44 PM 43.6889 -70.7663 209° Southwest 442 509 36,000  Level FlightAware ADS-B (KASH)
Thu 03:24:51 PM 43.6764 -70.7756 209° Southwest 442 509 36,000  Level FlightAware ADS-B (KASH)
Thu 03:25:01 PM 43.6580 -70.7890 209° Southwest 450 518 36,000  Level FlightAware ADS-B
Thu 03:25:24 PM 43.6195 -70.8177 208° Southwest 450 518 36,000  Level FlightAware ADS-B (EPKK / KRK)
Thu 03:25:34 PM 43.5990 -70.8330 209° Southwest 448 516 36,000  Level FlightAware ADS-B
Thu 03:25:56 PM 43.5578 -70.8630 208° Southwest 445 512 36,000  Level FlightAware ADS-B (EPKK / KRK)
Thu 03:26:09 PM 43.5380 -70.8770 209° Southwest 445 512 36,000  Level FlightAware ADS-B
Thu 03:26:26 PM 43.5080 -70.8998 208° Southwest 442 509 36,000  Level FlightAware ADS-B (EPKK / KRK)
Thu 03:26:55 PM 43.4530 -70.9400 209° Southwest 438 504 36,000  Level FlightAware ADS-B
Thu 03:26:57 PM 43.4496 -70.9425 208° Southwest 437 503 36,000  Level FlightAware ADS-B (EPKK / KRK)
Thu 03:27:27 PM 43.3953 -70.9822 208° Southwest 434 499 36,000  Level FlightAware ADS-B (EPKK / KRK)
Thu 03:27:49 PM 43.3560 -71.0110 209° Southwest 437 503 36,000  Level FlightAware ADS-B
Thu 03:27:59 PM 43.3384 -71.0243 208° Southwest 437 503 36,000  Level FlightAware ADS-B (KASH)
Thu 03:28:29 PM 43.2836 -71.0643 208° Southwest 435 501 36,000  Level FlightAware ADS-B (KASH)
Thu 03:29:05 PM 43.2223 -71.1088 208° Southwest 432 497 36,000  Level FlightAware ADS-B (EPKK / KRK)
Thu 03:29:37 PM 43.1659 -71.1500 208° Southwest 433 498 36,000  Level FlightAware ADS-B (EPKK / KRK)
Thu 03:30:07 PM 43.1131 -71.1882 208° Southwest 432 497 36,000  Level FlightAware ADS-B (EPKK / KRK)
Thu 03:30:37 PM 43.0605 -71.2261 208° Southwest 432 497 36,000  Level FlightAware ADS-B (EPKK / KRK)
Thu 03:31:09 PM 43.0038 -71.2672 208° Southwest 435 501 36,000  Level FlightAware ADS-B (EPKK / KRK)
Thu 03:31:39 PM 42.9500 -71.3060 208° Southwest 435 501 36,000  Level FlightAware ADS-B (EPKK / KRK)
Thu 03:32:12 PM 42.8912 -71.3482 208° Southwest 435 501 36,000  Level FlightAware ADS-B (EPKK / KRK)
Thu 03:32:44 PM 42.8330 -71.3899 208° Southwest 425 489 36,000  Level FlightAware ADS-B (KASH)
Thu 03:33:14 PM 42.7827 -71.4259 208° Southwest 429 494 36,000  Level FlightAware ADS-B (EPKK / KRK)
Thu 03:33:45 PM 42.7269 -71.4658 208° Southwest 422 486 36,000  Level FlightAware ADS-B (KASH)
Thu 03:34:15 PM 42.6743 -71.5034 208° Southwest 420 483 36,000  Level FlightAware ADS-B (KASH)
Thu 03:34:45 PM 42.6220 -71.5407 208° Southwest 423 487 36,000  Level FlightAware ADS-B (KASH)
Thu 03:35:15 PM 42.5690 -71.5786 208° Southwest 438 504 36,000  Level FlightAware ADS-B (KASH)
Thu 03:35:45 PM 42.5138 -71.6176 208° Southwest 439 505 36,000  Level FlightAware ADS-B (KASH)
Thu 03:36:15 PM 42.4610 -71.6549 208° Southwest 437 503 36,000  Level FlightAware ADS-B (KASH)
Thu 03:36:49 PM 42.3996 -71.6983 208° Southwest 438 504 36,000  Level FlightAware ADS-B (EPKK / KRK)
Thu 03:37:31 PM 42.3250 -71.7509 208° Southwest 439 505 36,000  Level FlightAware ADS-B (KASH)
Thu 03:38:01 PM 42.2699 -71.7898 208° Southwest 436 502 36,000  Level FlightAware ADS-B (KASH)
Thu 03:38:31 PM 42.2160 -71.8276 208° Southwest 435 501 36,000  Level FlightAware ADS-B (KASH)
Thu 03:38:38 PM 42.2041 -71.8360 207° Southwest 443 510 36,000  Level FlightAware ADS-B
Thu 03:39:10 PM 42.1459 -71.8766 207° Southwest 443 510 36,000  Level FlightAware ADS-B
Thu 03:39:44 PM 42.0853 -71.9189 208° Southwest 436 502 36,000  Level FlightAware ADS-B (KASH)
Thu 03:40:16 PM 42.0274 -71.9592 207° Southwest 443 510 36,000  Level FlightAware ADS-B
Thu 03:40:59 PM 41.9983 -71.9795 207° Southwest 444 511 36,000  Level FlightAware ADS-B (LDSP / SPU)
Thu 03:41:31 PM 41.8890 -72.0554 208° Southwest 438 504 36,000  Level FlightAware ADS-B (KASH)
Thu 03:41:40 PM 41.8769 -72.0637 207° Southwest 445 512 36,000  Level FlightAware ADS-B (EPKK / KRK)
Thu 03:42:17 PM 41.8060 -72.1128 207° Southwest 445 512 36,000  Level FlightAware ADS-B
Thu 03:42:59 PM 41.8161 -72.1058 207° Southwest 445 512 36,000  Level FlightAware ADS-B (LDSP / SPU)
Thu 03:43:35 PM 41.7941 -72.1210 207° Southwest 446 513 36,000  Level FlightAware ADS-B (KOWD)
Thu 03:44:38 PM 41.8161 -72.1058 207° Southwest 446 513 36,000  Level FlightAware ADS-B (LDSP / SPU)
Thu 03:45:17 PM 41.7941 -72.1210 207° Southwest 446 513 36,000  Level FlightAware ADS-B (KOWD)
Thu 03:45:52 PM 41.4269 -72.3736 207° Southwest 439 505 36,000  Level Boston Center
Thu 03:46:53 PM 41.3147 -72.4497 207° Southwest 446 513 36,000  Level Boston Center
Thu 03:47:54 PM 41.2014 -72.5239 206° Southwest 452 520 36,000  Level Boston Center
Thu 03:48:54 PM 41.0986 -72.6119 213° Southwest 442 509 36,000  Level Boston Center
Thu 03:49:56 PM 41.0042 -72.7067 217° Southwest 428 493 36,000  Level Boston Center
Thu 03:50:59 PM 40.9061 -72.8011 216° Southwest 431 496 36,000  Level Boston Center
Thu 03:51:59 PM 40.8103 -72.8983 218° Southwest 433 498 36,000  Level Boston Center
Thu 03:53:00 PM 40.7119 -72.9950 217° Southwest 434 499 36,000  Level Boston Center
Thu 03:54:03 PM 40.5967 -73.1086 217° Southwest 434 499 36,000  Level Boston Center
Thu 03:55:04 PM 40.4992 -73.2025 216° Southwest 434 499 36,000  Level Boston Center
Thu 03:56:05 PM 40.4022 -73.2967 217° Southwest 434 499 36,000  Level Boston Center
Thu 03:57:06 PM 40.3047 -73.3903 216° Southwest 434 499 36,000  Level Boston Center
Thu 03:58:06 PM 40.1994 -73.4914 216° Southwest 434 499 36,000  Level Boston Center
Thu 03:59:10 PM 40.1014 -73.5836 216° Southwest 434 499 36,000  Level Boston Center
Thu 04:04:49 PM 40.0842 -73.5998 216° Southwest 435 501 36,000  Level FlightAware ADS-B (KPHL)
Thu 04:05:22 PM 39.4606 -74.1211 216° Southwest 451 519 36,000  Level Washington Center
Thu 04:11:00 PM 38.9869 -74.4937 211° Southwest 451 519 36,000  Level FlightAware ADS-B
Thu 04:12:03 PM 38.7387 -74.6875 211° Southwest 451 519 36,000  Level FlightAware ADS-B
Thu 04:13:18 PM 38.6253 -74.7755 211° Southwest 452 520 36,000  Level FlightAware ADS-B
Thu 04:14:21 PM 38.5003 -74.8756 211° Southwest 451 519 36,000  Level Washington Center
Thu 04:15:21 PM 38.3944 -74.9639 213° Southwest 451 519 36,000  Level Washington Center
Thu 04:16:20 PM 38.3011 -75.0333 210° Southwest 446 513 36,000  Level Washington Center
Thu 04:17:21 PM 38.1931 -75.1214 213° Southwest 446 513 36,000  Level Washington Center
Thu 04:18:21 PM 38.0847 -75.1961 209° Southwest 451 519 36,000  Level Washington Center
Thu 04:19:19 PM 37.9767 -75.2756 210° Southwest 451 519 36,000  Level Washington Center
Thu 04:20:19 PM 37.8683 -75.3578 211° Southwest 451 519 36,000  Level Washington Center
Thu 04:21:20 PM 37.7642 -75.4419 213° Southwest 451 519 36,000  Level Washington Center
Thu 04:22:20 PM 37.6558 -75.5208 210° Southwest 451 519 36,000  Level Washington Center
Thu 04:23:20 PM 37.5453 -75.6022 210° Southwest 451 519 36,000  Level Washington Center
Thu 04:24:19 PM 37.4369 -75.6833 211° Southwest 451 519 36,000  Level Washington Center
Thu 04:25:20 PM 37.3283 -75.7642 211° Southwest 451 519 36,000  Level Washington Center
Thu 04:26:20 PM 37.2219 -75.8422 210° Southwest 451 519 36,000  Level Washington Center
Thu 04:27:20 PM 37.1028 -75.9303 211° Southwest 451 519 36,000  Level Washington Center
Thu 04:28:21 PM 36.9981 -76.0106 211° Southwest 451 519 36,000  Level Washington Center
Thu 04:29:22 PM 36.8811 -76.0878 208° Southwest 462 532 36,000  Level Washington Center
Thu 04:30:19 PM 36.7700 -76.1675 210° Southwest 462 532 36,000  Level Washington Center
Thu 04:31:21 PM 36.6611 -76.2522 212° Southwest 467 537 36,000  Level Washington Center
Thu 04:32:22 PM 36.5522 -76.3314 210° Southwest 467 537 36,000  Level Washington Center
Thu 04:33:19 PM 36.4453 -76.4078 210° Southwest 462 532 36,000  Level Washington Center
Thu 04:34:19 PM 36.3364 -76.4842 209° Southwest 462 532 36,000  Level Washington Center
Thu 04:35:20 PM 36.2272 -76.5653 211° Southwest 462 532 36,000  Level Washington Center
Thu 04:36:20 PM 36.1161 -76.6411 209° Southwest 462 532 36,000  Level Washington Center
Thu 04:37:21 PM 36.0047 -76.7192 210° Southwest 462 532 36,000  Level Washington Center
Thu 04:38:19 PM 35.8975 -76.8022 212° Southwest 462 532 36,000  Level Washington Center
Thu 04:39:20 PM 35.7861 -76.8775 209° Southwest 462 532 36,000  Level Washington Center
Thu 04:40:21 PM 35.6747 -76.9575 210° Southwest 467 537 36,000  Level Washington Center
Thu 04:41:19 PM 35.5778 -77.0247 209° Southwest 459 528 36,000  Level Washington Center
Thu 04:42:19 PM 35.4664 -77.1044 210° Southwest 459 528 36,000  Level Washington Center
Thu 04:43:20 PM 35.3569 -77.1786 209° Southwest 459 528 36,000  Level Washington Center
Thu 04:44:21 PM 35.2431 -77.2578 210° Southwest 459 528 36,000  Level Washington Center
Thu 04:45:21 PM 35.1378 -77.3319 210° Southwest 459 528 36,000  Level Washington Center
Thu 04:46:20 PM 35.0239 -77.4106 209° Southwest 464 534 36,000  Level Washington Center
Thu 04:47:21 PM 34.9122 -77.4892 210° Southwest 469 540 36,000  Level Washington Center
Thu 04:48:19 PM 34.7939 -77.5750 211° Southwest 459 528 36,000  Level Washington Center
Thu 04:49:19 PM 34.6861 -77.6481 209° Southwest 454 522 36,000  Level Washington Center
Thu 04:50:20 PM 34.5742 -77.7258 210° Southwest 454 522 36,000  Level Washington Center
Thu 04:52:29 PM 34.3286 -77.8111 196° South 459 528 36,000  Level Jacksonville Center
Thu 04:53:29 PM 34.2194 -77.8428 193° South 454 522 36,000  Level Jacksonville Center
Thu 04:54:29 PM 34.0833 -77.8831 194° South 459 528 36,000  Level Jacksonville Center
Thu 04:55:29 PM 33.9658 -77.9225 196° South 449 517 36,000  Level Jacksonville Center
Thu 04:56:29 PM 33.8483 -77.9567 194° South 444 511 36,000  Level Jacksonville Center
Thu 04:57:29 PM 33.7308 -77.9956 195° South 444 511 36,000  Level Jacksonville Center
Thu 04:58:29 PM 33.6033 -78.0378 195° South 444 511 36,000  Level Jacksonville Center
Thu 04:59:29 PM 33.4958 -78.0683 193° South 444 511 36,000  Level Jacksonville Center
Thu 05:00:29 PM 33.3681 -78.1103 195° South 444 511 36,000  Level Jacksonville Center
Thu 05:01:29 PM 33.2608 -78.1408 193° South 444 511 36,000  Level Jacksonville Center
Thu 05:02:29 PM 33.1431 -78.1769 194° South 450 518 36,000  Level Jacksonville Center
Thu 05:03:29 PM 33.0153 -78.2158 194° South 450 518 36,000  Level Jacksonville Center
Thu 05:04:29 PM 32.8997 -78.2539 195° South 445 512 36,000  Level Jacksonville Center
Thu 05:05:29 PM 32.7822 -78.2897 194° South 445 512 36,000  Level Jacksonville Center
Thu 05:06:29 PM 32.6747 -78.3247 195° South 445 512 36,000  Level Jacksonville Center
Thu 05:07:29 PM 32.5569 -78.3578 193° South 445 512 36,000  Level Jacksonville Center
Thu 05:08:29 PM 32.4292 -78.3961 194° South 445 512 36,000  Level Jacksonville Center
Thu 05:09:29 PM 32.3114 -78.4364 196° South 445 512 36,000  Level Jacksonville Center
Thu 05:10:29 PM 32.1936 -78.4692 193° South 445 512 36,000  Level Jacksonville Center
Thu 05:11:29 PM 32.0739 -78.5092 196° South 445 512 36,000  Level Jacksonville Center
Thu 05:12:29 PM 31.9542 -78.5442 194° South 450 518 36,000  Level Jacksonville Center
Thu 05:13:29 PM 31.8364 -78.5817 195° South 450 518 36,000  Level Jacksonville Center
Thu 05:14:29 PM 31.7144 -78.6189 195° South 450 518 36,000  Level Jacksonville Center
Thu 05:15:29 PM 31.5967 -78.6511 193° South 450 518 36,000  Level Jacksonville Center
Thu 05:16:29 PM 31.4767 -78.6833 193° South 448 516 36,000  Level Jacksonville Center
Thu 05:17:29 PM 31.3569 -78.7228 196° South 454 522 36,000  Level Jacksonville Center
Thu 05:18:29 PM 31.2328 -78.7600 194° South 454 522 36,000  Level Jacksonville Center
Thu 05:19:29 PM 31.1128 -78.7944 194° South 448 516 36,000  Level Jacksonville Center
Thu 05:20:29 PM 30.9928 -78.8286 194° South 453 521 36,000  Level Jacksonville Center
Thu 05:22:23 PM 30.7658 -78.8969 195° South 444 511 36,000  Level Miami Center
Thu 05:23:23 PM 30.6467 -78.9283 193° South 444 511 36,000  Level Miami Center
Thu 05:24:23 PM 30.5275 -78.9647 195° South 444 511 36,000  Level Miami Center
Thu 05:25:23 PM 30.4100 -79.0081 198° South 444 511 36,000  Level Miami Center
Thu 05:26:23 PM 30.2967 -79.0561 200° South 444 511 36,000  Level Miami Center
Thu 05:27:23 PM 30.1794 -79.0992 198° South 449 517 36,000  Level Miami Center
Thu 05:28:23 PM 30.0767 -79.1403 199° South 444 511 36,000  Level Miami Center
Thu 05:29:23 PM 29.9483 -79.1975 201° Southwest 444 511 36,000  Level Miami Center
Thu 05:30:23 PM 29.8289 -79.2378 196° South 449 517 36,000  Level Miami Center
Thu 05:31:23 PM 29.7178 -79.2833 200° South 443 510 36,000  Level Miami Center
Thu 05:32:23 PM 29.6000 -79.3283 198° South 448 516 36,000  Level Miami Center
Thu 05:33:23 PM 29.4847 -79.3708 198° South 448 516 36,000  Level Miami Center
Thu 05:39:46 PM 28.7449 -79.6444 198° South 442 509 36,000  Level FlightAware ADS-B
Thu 05:40:16 PM 28.6785 -79.6692 198° South 442 509 36,000  Level FlightAware ADS-B
Thu 05:41:56 PM 28.4823 -79.7423 198° South 444 511 36,000  Level FlightAware ADS-B
Thu 05:42:27 PM 28.4235 -79.7642 198° South 445 512 36,000  Level FlightAware ADS-B
Thu 05:42:58 PM 28.3604 -79.7876 198° South 445 512 36,000  Level FlightAware ADS-B
Thu 05:43:44 PM 28.2779 -79.8182 198° South 443 510 36,000  Level FlightAware ADS-B
Thu 05:44:14 PM 28.2167 -79.8408 198° South 444 511 36,000  Level FlightAware ADS-B
Thu 05:45:11 PM 28.1036 -79.8826 198° South 443 510 36,000  Level FlightAware ADS-B
Thu 05:45:49 PM 28.0354 -79.9078 198° South 443 510 36,000  Level FlightAware ADS-B
Thu 05:46:22 PM 27.9630 -79.9345 198° South 443 510 36,000  Level FlightAware ADS-B
Thu 05:46:52 PM 27.9050 -79.9557 198° South 444 511 36,000  Level FlightAware ADS-B
Thu 05:47:37 PM 27.8176 -79.9879 198° South 445 512 36,000  Level FlightAware ADS-B
Thu 05:48:11 PM 27.7500 -80.0127 198° South 446 513 36,000  Level FlightAware ADS-B
Thu 05:48:54 PM 27.6654 -80.0437 198° South 445 512 36,000  Level FlightAware ADS-B
Thu 05:49:24 PM 27.6069 -80.0650 198° South 445 512 36,000  Level FlightAware ADS-B
Thu 05:50:07 PM 27.5216 -80.0961 198° South 444 511 36,000  Level FlightAware ADS-B
Thu 05:50:38 PM 27.4617 -80.1181 198° South 443 510 36,000  Level FlightAware ADS-B
Thu 05:51:08 PM 27.4064 -80.1382 198° South 442 509 36,000  Level FlightAware ADS-B
Thu 05:51:45 PM 27.3314 -80.1654 198° South 441 507 36,000  Level FlightAware ADS-B
Thu 05:52:16 PM 27.2726 -80.1868 198° South 441 507 36,000  Level FlightAware ADS-B
Thu 05:52:58 PM 27.1899 -80.2168 198° South 442 509 36,000  Level FlightAware ADS-B
Thu 05:53:31 PM 27.1262 -80.2399 198° South 443 510 36,000  Level FlightAware ADS-B
Thu 05:54:46 PM 26.9884 -80.2897 198° South 445 512 36,000  Level FlightAware ADS-B
Thu 05:55:21 PM 26.9101 -80.3180 198° South 445 512 36,000  Level FlightAware ADS-B
Thu 05:56:20 PM 26.7937 -80.3599 198° South 443 510 36,000  Level FlightAware ADS-B
Thu 05:56:51 PM 26.7333 -80.3816 198° South 442 509 36,000  Level FlightAware ADS-B
Thu 05:57:31 PM 26.6589 -80.4143 212° Southwest 428 493 36,000  Level FlightAware ADS-B
Thu 05:58:13 PM 26.5912 -80.4691 216° Southwest 426 490 36,000  Level FlightAware ADS-B
Thu 05:59:07 PM 26.5043 -80.5397 216° Southwest 430 495 36,000  Level FlightAware ADS-B
Thu 05:59:49 PM 26.4402 -80.5916 216° Southwest 432 497 36,000  Level FlightAware ADS-B
Thu 06:00:23 PM 26.3972 -80.6281 216° Southwest 432 497 36,000  Level Miami Center
Thu 06:01:23 PM 26.2883 -80.7172 216° Southwest 438 504 36,000  Level Miami Center
Thu 06:02:23 PM 26.2031 -80.7861 216° Southwest 438 504 36,000  Level Miami Center
Thu 06:03:23 PM 26.1069 -80.8617 215° Southwest 438 504 36,000  Level Miami Center
Thu 06:04:23 PM 26.0131 -80.9369 216° Southwest 438 504 36,000  Level Miami Center
Thu 06:05:23 PM 25.9147 -81.0192 217° Southwest 438 504 36,000  Level Miami Center
Thu 06:06:23 PM 25.8186 -81.0967 216° Southwest 438 504 36,000  Level Miami Center
Thu 06:07:23 PM 25.7222 -81.1714 215° Southwest 438 504 36,000  Level Miami Center
Thu 06:08:23 PM 25.6239 -81.2486 215° Southwest 443 510 36,000  Level Miami Center
Thu 06:09:23 PM 25.5297 -81.3233 216° Southwest 438 504 36,000 -800 Level Miami Center
Thu 06:10:23 PM 25.4233 -81.3908 210° Southwest 438 504 34,400 -1,650 Descending Miami Center
Thu 06:11:23 PM 25.3131 -81.4464 204° Southwest 438 504 32,700 -1,450 Descending Miami Center
Thu 06:12:23 PM 25.2047 -81.5019 205° Southwest 438 504 31,500 -1,100 Descending Miami Center
Thu 06:13:23 PM 25.1106 -81.5742 215° Southwest 432 497 30,500 -950 Descending Miami Center
Thu 06:14:23 PM 25.0203 -81.6531 218° Southwest 421 484 29,600 -1,000 Descending Miami Center
Thu 06:15:23 PM 24.9322 -81.7300 218° Southwest 416 479 28,500 -850 Descending Miami Center
Thu 06:16:23 PM 24.8375 -81.8153 219° Southwest 409 471 27,900 -250 Descending Miami Center
Thu 06:17:23 PM 24.7539 -81.8831 216° Southwest 414 476 28,000 50 Climbing Miami Center
Thu 06:18:23 PM 24.6633 -81.9614 218° Southwest 414 476 28,000  Level Miami Center
Thu 06:19:23 PM 24.5711 -82.0353 216° Southwest 414 476 28,000 -400 Level Miami Center
Thu 06:20:23 PM 24.4850 -82.1117 219° Southwest 414 476 27,200 -900 Descending Miami Center
Thu 06:21:23 PM 24.3986 -82.1856 218° Southwest 409 471 26,200 -1,000 Descending Miami Center
Thu 06:22:23 PM 24.3128 -82.2547 216° Southwest 404 465 25,200 -1,000 Descending Miami Center
Thu 06:23:23 PM 24.2267 -82.3261 217° Southwest 398 458 24,200 -1,000 Descending Miami Center
Thu 06:24:23 PM 24.1425 -82.3975 218° Southwest 393 452 23,200 -1,000 Descending Miami Center
Thu 06:26:00 PM 23.9614 -82.3993 181° South  Level Estimated
Thu 06:33:00 PM 23.1773 -82.4072 181° South  Level Estimated
Thu 06:34:00 PM 23.0660 -82.3935 174° South  Level FlightAware Approximate
Thu 06:35:00 PM 22.9891 -82.4091 223° Southwest  Level Estimated
Thu 06:36:00 PM 22.9891 -82.4091 223° Southwest  Level Estimated
Thu 06:37:00 PM 22.9891 -82.4091 223° Southwest  Level Estimated
Thu 06:38:00 PM 22.9891 -82.4091 223° Southwest  Level Estimated
Thu 06:39:00 PM 22.9891 -82.4091 223° Southwest  Level Estimated
Thu 06:40:00 PM 22.9891 -82.4091 223° Southwest  Level Estimated
Thu 06:41:00 PM 22.9891 -82.4091 223° Southwest  Level Estimated
Thu 06:42:00 PM 22.9891 -82.4091 223° Southwest  Level Estimated
Thu 06:43:00 PM 22.9891 -82.4091 223° Southwest  Level Estimated
Thu 06:44:00 PM 22.9891 -82.4091 223° Southwest  Level Estimated
Thu 06:45:00 PM 22.9891 -82.4091 223° Southwest  Level Estimated
Thu 06:46:00 PM 22.9891 -82.4091 223° Southwest  Level Estimated
Thu 06:47:00 PM 22.9891 -82.4091 223° Southwest  Level Estimated
Thu 06:48:00 PM 22.9891 -82.4091 223° Southwest  Level Estimated
Thu 06:49:00 PM 22.9891 -82.4091 223° Southwest  Level Estimated
Thu 06:50:00 PM 22.9891 -82.4091 223° Southwest  Level Estimated
Thu 06:51:00 PM 22.9891 -82.4091 223° Southwest  Level Estimated
Thu 06:52:00 PM 22.9891 -82.4091 223° Southwest  Level Estimated
Thu 06:53:00 PM 22.9891 -82.4091 223° Southwest  Level Estimated
Thu 06:54:00 PM 22.9891 -82.4091 223° Southwest  Level Estimated
Thu 06:55:00 PM 22.9891 -82.4091 223° Southwest  Level Estimated
Thu 06:56:00 PM 22.9891 -82.4091 223° Southwest  Level Estimated

Login

Don't have an account? Register now (free) for customized features, flight alerts, and more!